首页
METAR-TAF:

METAR-TAF

机场 :

希奥利艾机场

希奥利艾, 立陶宛

纬度: 55-53-38N, 经度: 023-23-42E, 海拔: 135米

当前天气观测

该预报发布于24分钟前的08:20 UTC
风速11节,风向东转东南
温度 -1°C
湿度 93%
气压 1009 hPa
能見度: 9000
阴天层高于800英尺

METAR: EYSA 120820Z 12011KT 9000 OVC008 M01/M02 Q1009 R14L/29//95 R14R/29//95 GRN NOSIG

时间: 10:44 (08:44 UTC)

预报

该预报发布于42分钟前的08:02 UTC
预报有效从12日的 09点(UTC)到 12日的 18点(UTC)
风速13节,风向东南
能見度: 5000
阴天层高于1000英尺
轻雾
短暂存在
从 12日的 09点(UTC)到 12日的 12点(UTC)
能見度: 1500
阴天层高于500英尺
雪, 雨
短暂存在
从 12日的 12点(UTC)到 12日的 18点(UTC)
能見度: 3000
阴天层高于500英尺
冻雨

TAF: EYSA 120802Z 1209/1218 13013KT 5000 BR OVC010 TEMPO 1209/1212 1500 SNRA OVC005 TEMPO 1212/1218 3000 FZRA OVC005

超过4000个机场的气象观测和天气预报(METAR&TAF报告)。

可查询的气象台以黄色和红色小点在地图上表示。

将鼠标移到小点上方,可查看气象台名称。

然后点击查看天气观测和预报。

如需切换地图:点击带黑十字的绿色按钮放大地图;点击带横线的绿色按钮缩小地图;或者点击绿色箭头查看邻近地区的地图。


METAR-TAF: